Portada
METAR-TAF:

METAR-TAF

Aeroports :

Charlottetown, Illa del Príncep Eduard, Canadà

latitud: 46-17N, longitud: 063-08W, altitud: 48 m

Observació

L'informe es va fer fa 20 minuts, a les 14:00 UTC
Vent 7 kt del Sud-Oest
Temperatura 21°C
Humitat 64%
Pressió 1009 hPa
Visibilitat: 24.1 km
Núvols disperses a una alçada de 10000 ft
Cel ennuvolat a una alçada de 15000 ft

METAR: CYYG 221400Z 22007KT 15SM SCT100 BKN150 21/14 A2981 RMK AC3AC3 SLP095 DENSITY ALT 1100FT

Hora: 11:20 (14:20 UTC)

Pronòstic

L'informe es va fer fa 2 hores i 40 minuts, a les 11:40 UTC
Pronòstic vàlid del 22 a les 12 UTC al 22 a les 24 UTC
Vent 11 kt del Oest/Sud-Oest
Visibilitat: 10 km
Cel ennuvolat a una alçada de 8000 ft
Evolucionant progressivament
l' 22 a les 22 UTC al 22 a les 24 UTC
Vent 3 kt amb direcció variable

TAF: CYYG 221140Z 2212/2224 24011KT P6SM BKN080 BECMG 2222/2224 VRB03KT RMK NXT FCST BY 221800Z

Observacions i pronòstics meteorològics de més de 4000 aeroports (METAR i TAF).

Les estacions disponibles són els punts grocs i vermells al mapa.

Posi el ratolí al punt desitjat per veure el nom de l'estació.

Feu clic per veure les observacions i els pronòstics meteorològics.

Per canviar el mapa: feu clic els botons verds amb una creu de color negre per apropar; al botó verd amb un guió per allunyar la imatge; o en les fletxes verdes per a mapes adjacents.


METAR-TAF: